Churchton, Maryland
Current Conditions -  °F | °C
As of 8:54 AM on Wednesday 26 Nov 2014 (Local Time) from KNAK Reporting Station
Moderate Rain Moderate Rain  
Wind Chill: 34°   Ceiling: 2200
Heat Index: 41°   Visibility: 2mi
Dew Point: 37°   Wind: 13mph
Humidity: 86%   Direction: 40°NE
Pressure: 30.09"   Gusts: 22mph
Location:  38.8°N, 76.54°W
Report Text: KNAK 261354Z AUTO 04011G19KT 2SM RA BR SCT015 BKN022 OVC026 05/03 A3009 RMK AO2 SLP193 P0015 T00500028
Loading
Personal Weather Stations






























Interactive Weather Map New forecast layout! Learn more

10-Day Weather Forecast

Advertisements
Track Severe Weather on mobile